Medora, Kansas
Current Conditions -  °F | °C
As of 9:52 PM on Friday 24 Oct 2014 (Local Time) from KHUT Reporting Station
Clear Clear  
Wind Chill: 67°   Ceiling: Unl
Heat Index: 67°   Visibility: 10mi
Dew Point: 60°   Wind: 6mph
Humidity: 79%   Direction: 200°SSW
Pressure: 30.02"   Gusts: NA
Location:  38.1208°N, 97.9192°W
Report Text: KHUT 250252Z 20005KT 10SM CLR 19/16 A3002 RMK AO2 SLP151 T01940156 51011
Loading
Personal Weather Stations






























Interactive Weather Map
Tropical Storm Tracking
New forecast layout! Learn more

10-Day Weather Forecast

Advertisements
Track Severe Weather on mobile